createdAt,value
2019-06-26T00:00:16.110Z,99852.91
2019-06-26T00:02:56.689Z,99852.27
2019-06-26T00:05:30.924Z,99841.17
2019-06-26T00:07:59.271Z,99837.19
2019-06-26T00:10:31.484Z,99836.70
2019-06-26T00:13:05.611Z,99837.41
2019-06-26T00:15:45.151Z,99835.09
2019-06-26T00:18:15.099Z,99844.53
2019-06-26T00:20:47.595Z,99837.41
2019-06-26T00:23:20.049Z,99839.08
2019-06-26T00:25:52.311Z,99842.39
2019-06-26T00:28:27.716Z,99842.73
2019-06-26T00:31:01.920Z,99840.59
2019-06-26T00:33:34.352Z,99843.89
2019-06-26T00:36:08.127Z,99841.73
2019-06-26T00:38:41.907Z,99846.55
2019-06-26T00:41:23.073Z,99831.80
2019-06-26T00:43:58.585Z,99832.14
2019-06-26T00:46:35.623Z,99835.11
2019-06-26T00:49:09.570Z,99835.94
2019-06-26T00:51:43.522Z,99835.77
2019-06-26T00:54:24.875Z,99834.44
2019-06-26T00:57:04.187Z,99835.12
2019-06-26T00:59:39.969Z,99834.44
2019-06-26T01:02:18.381Z,99816.92
2019-06-26T01:04:55.487Z,99812.42
2019-06-26T01:07:31.123Z,99816.23
2019-06-26T01:10:03.469Z,99818.69
2019-06-26T01:12:36.040Z,99815.42
2019-06-26T01:15:10.182Z,99803.67
2019-06-26T01:17:42.522Z,99806.96
2019-06-26T01:20:17.368Z,99812.11
2019-06-26T01:22:50.820Z,99814.92
2019-06-26T01:25:23.119Z,99815.24
2019-06-26T01:27:55.303Z,99811.11
2019-06-26T01:30:27.722Z,99808.45
2019-06-26T01:33:01.007Z,99803.67
2019-06-26T01:35:33.250Z,99807.31
2019-06-26T01:38:07.528Z,99807.79
2019-06-26T01:40:40.011Z,99801.03
2019-06-26T01:43:12.318Z,99792.22
2019-06-26T01:45:44.801Z,99789.56
2019-06-26T01:48:17.135Z,99790.09
2019-06-26T01:50:53.958Z,99793.20
2019-06-26T01:53:27.625Z,99793.73
2019-06-26T01:56:03.252Z,99794.56
2019-06-26T01:58:35.463Z,99792.41
2019-06-26T02:01:09.895Z,99800.17
2019-06-26T02:03:42.132Z,99791.70
2019-06-26T02:06:17.196Z,99783.11
2019-06-26T02:08:53.522Z,99777.96
2019-06-26T02:11:26.229Z,99785.60
2019-06-26T02:14:43.976Z,99785.10
2019-06-26T02:17:39.677Z,99777.83
2019-06-26T02:19:59.151Z,99777.02
2019-06-26T02:22:34.705Z,99776.50
2019-06-26T02:25:12.304Z,99772.55
2019-06-26T02:27:50.752Z,99772.05
2019-06-26T02:30:35.902Z,99764.59
2019-06-26T02:33:21.432Z,99771.69
2019-06-26T02:35:49.640Z,99759.97
2019-06-26T02:38:38.542Z,99760.59
2019-06-26T02:41:19.623Z,99765.91
2019-06-26T02:44:12.263Z,99773.84
2019-06-26T02:46:54.170Z,99761.77
2019-06-26T02:49:40.416Z,99755.65
2019-06-26T02:52:24.847Z,99748.67
2019-06-26T02:58:25.092Z,99764.91
2019-06-26T03:04:22.919Z,99756.28
2019-06-26T03:07:26.056Z,99758.29
2019-06-26T03:09:59.167Z,99762.27
2019-06-26T03:12:32.811Z,99751.49
2019-06-26T03:15:09.343Z,99752.81
2019-06-26T03:17:54.763Z,99758.77
2019-06-26T03:20:15.647Z,99757.27
2019-06-26T03:22:48.096Z,99760.56
2019-06-26T03:25:20.339Z,99753.46
2019-06-26T03:27:52.920Z,99756.62
2019-06-26T03:30:25.384Z,99757.77
2019-06-26T03:33:02.339Z,99757.80
2019-06-26T03:35:44.636Z,99754.12
2019-06-26T03:38:18.945Z,99750.17
2019-06-26T03:40:55.367Z,99748.81
2019-06-26T03:43:35.594Z,99747.02
2019-06-26T03:46:41.577Z,99748.69
2019-06-26T03:49:23.926Z,99748.03
2019-06-26T03:52:07.390Z,99753.98
2019-06-26T03:55:11.681Z,99754.31
2019-06-26T03:57:56.327Z,99752.31
2019-06-26T04:00:43.009Z,99754.97
2019-06-26T04:03:23.537Z,99747.02
2019-06-26T04:05:58.863Z,99745.53
2019-06-26T04:08:48.530Z,99754.98
2019-06-26T04:11:27.867Z,99752.98
2019-06-26T04:14:05.602Z,99746.36
2019-06-26T04:16:39.768Z,99743.41
2019-06-26T04:19:24.407Z,99747.02
2019-06-26T04:22:00.379Z,99751.48
2019-06-26T04:24:34.101Z,99746.53
2019-06-26T04:27:06.849Z,99743.05
2019-06-26T04:29:39.301Z,99752.36
2019-06-26T04:32:12.847Z,99753.78
2019-06-26T04:34:46.798Z,99747.17
2019-06-26T04:37:19.133Z,99750.75
2019-06-26T04:39:52.965Z,99765.67
2019-06-26T04:42:26.365Z,99776.45
2019-06-26T04:45:00.194Z,99782.52
2019-06-26T04:47:34.512Z,99794.93
2019-06-26T04:50:08.290Z,99808.48
2019-06-26T04:52:40.977Z,99803.17
2019-06-26T04:55:13.542Z,99798.82
2019-06-26T04:57:45.878Z,99805.92
2019-06-26T05:00:21.704Z,99801.61
2019-06-26T05:02:55.470Z,99804.45
2019-06-26T05:05:39.132Z,99803.83
2019-06-26T05:08:03.239Z,99813.41
2019-06-26T05:10:35.489Z,99808.79
2019-06-26T05:13:07.893Z,99818.72
2019-06-26T05:15:40.431Z,99827.31
2019-06-26T05:18:12.844Z,99834.73
2019-06-26T05:20:45.889Z,99832.59
2019-06-26T05:23:18.069Z,99830.12
2019-06-26T05:25:50.398Z,99835.59
2019-06-26T05:28:23.657Z,99829.83
2019-06-26T05:30:56.270Z,99833.30
2019-06-26T05:33:28.599Z,99840.30
2019-06-26T05:36:02.424Z,99832.84
2019-06-26T05:38:40.162Z,99835.66
2019-06-26T05:41:18.180Z,99846.10
2019-06-26T05:43:50.020Z,99847.92
2019-06-26T05:46:30.920Z,99854.77
2019-06-26T05:48:56.583Z,99851.00
2019-06-26T05:51:28.844Z,99857.44
2019-06-26T05:54:02.642Z,99856.19
2019-06-26T05:56:45.655Z,99865.83
2019-06-26T05:59:19.814Z,99869.59
2019-06-26T06:01:59.462Z,99862.41
2019-06-26T06:04:37.399Z,99869.74
2019-06-26T06:07:11.412Z,99870.86
2019-06-26T06:09:43.915Z,99879.27
2019-06-26T06:12:16.003Z,99873.95
2019-06-26T06:14:52.792Z,99872.77
2019-06-26T06:17:24.951Z,99875.66
2019-06-26T06:19:57.608Z,99870.33
2019-06-26T06:22:29.730Z,99873.31
2019-06-26T06:25:03.201Z,99880.30
2019-06-26T06:27:39.059Z,99895.42
2019-06-26T06:30:11.474Z,99899.27
2019-06-26T06:32:44.129Z,99894.36
2019-06-26T06:35:16.378Z,99895.04
2019-06-26T06:37:48.552Z,99897.70
2019-06-26T06:40:21.635Z,99889.89
2019-06-26T06:42:54.230Z,99903.51
2019-06-26T06:45:26.871Z,99905.30
2019-06-26T06:47:59.072Z,99899.72
2019-06-26T06:50:31.112Z,99913.18
2019-06-26T06:53:03.572Z,99918.33
2019-06-26T06:55:35.696Z,99926.70
2019-06-26T06:58:07.803Z,99925.73
2019-06-26T07:00:39.984Z,99927.22
2019-06-26T07:03:12.154Z,99925.45
2019-06-26T07:05:44.212Z,99937.55
2019-06-26T07:08:16.270Z,99934.69
2019-06-26T07:10:49.296Z,99933.11
2019-06-26T07:13:21.778Z,99937.02
2019-06-26T07:15:53.882Z,99950.02
2019-06-26T07:18:25.930Z,99945.05
2019-06-26T07:20:59.819Z,99944.92
2019-06-26T07:23:34.490Z,99957.23
2019-06-26T07:26:06.939Z,99957.58
2019-06-26T07:28:39.028Z,99958.03
2019-06-26T07:31:12.957Z,99954.30
2019-06-26T07:33:45.119Z,99956.48
2019-06-26T07:36:17.326Z,99960.22
2019-06-26T07:38:52.169Z,99966.36
2019-06-26T07:41:26.970Z,99972.48
2019-06-26T07:43:59.045Z,99980.60
2019-06-26T07:46:31.180Z,99981.39
2019-06-26T07:49:03.483Z,99987.20
2019-06-26T07:51:35.595Z,99986.94
2019-06-26T07:54:07.636Z,99987.50
2019-06-26T07:56:41.613Z,99993.20
2019-06-26T07:59:13.685Z,99993.45
2019-06-26T08:01:47.437Z,99994.70
2019-06-26T08:04:19.516Z,99994.38
2019-06-26T08:06:51.703Z,100005.27
2019-06-26T08:09:23.908Z,100011.34
2019-06-26T08:11:56.047Z,100007.55
2019-06-26T08:14:28.152Z,100010.69
2019-06-26T08:17:00.294Z,100008.06
2019-06-26T08:19:32.353Z,100004.69
2019-06-26T08:22:04.425Z,100011.27
2019-06-26T08:24:36.457Z,100016.89
2019-06-26T08:27:08.602Z,100011.08
2019-06-26T08:29:40.691Z,100017.36
2019-06-26T08:32:12.843Z,100023.13
2019-06-26T08:34:45.816Z,100022.91
2019-06-26T08:37:19.565Z,100025.62
2019-06-26T08:39:51.717Z,100025.94
2019-06-26T08:42:23.794Z,100024.53
2019-06-26T08:44:56.007Z,100020.28
2019-06-26T08:47:29.669Z,100026.22
2019-06-26T08:50:02.020Z,100028.60
2019-06-26T08:52:34.367Z,100026.02
2019-06-26T08:55:06.931Z,100029.81
2019-06-26T08:57:38.980Z,100034.94
2019-06-26T09:00:11.891Z,100042.08
2019-06-26T09:02:43.940Z,100038.76
2019-06-26T09:05:16.093Z,100041.71
2019-06-26T09:07:48.155Z,100038.22
2019-06-26T09:10:20.435Z,100039.92
2019-06-26T09:12:52.466Z,100036.59
2019-06-26T09:15:24.586Z,100034.14
2019-06-26T09:17:56.644Z,100042.84
2019-06-26T09:20:35.868Z,100035.12
2019-06-26T09:23:08.148Z,100040.28
2019-06-26T09:25:40.213Z,100044.72
2019-06-26T09:28:12.683Z,100043.94
2019-06-26T09:30:44.761Z,100047.40
2019-06-26T09:33:17.009Z,100043.44
2019-06-26T09:35:49.104Z,100048.34
2019-06-26T09:38:21.159Z,100044.03
2019-06-26T09:40:53.377Z,100042.73
2019-06-26T09:43:25.467Z,100047.84
2019-06-26T09:45:57.507Z,100049.00
2019-06-26T09:48:29.614Z,100043.89
2019-06-26T09:51:01.852Z,100041.53
2019-06-26T09:53:46.397Z,100042.84
2019-06-26T09:56:09.570Z,100045.11
2019-06-26T09:58:41.683Z,100044.81
2019-06-26T10:01:13.829Z,100041.63
2019-06-26T10:03:45.926Z,100050.46
2019-06-26T10:06:19.107Z,100050.68
2019-06-26T10:08:54.185Z,100046.05
2019-06-26T10:11:25.055Z,100051.23
2019-06-26T10:13:57.183Z,100055.75
2019-06-26T10:16:29.301Z,100055.84
2019-06-26T10:19:09.983Z,100059.77
2019-06-26T10:21:37.137Z,100062.59
2019-06-26T10:24:09.361Z,100067.80
2019-06-26T10:26:41.855Z,100070.73
2019-06-26T10:29:14.024Z,100065.42
2019-06-26T10:31:46.522Z,100069.85
2019-06-26T10:34:18.695Z,100063.38
2019-06-26T10:36:50.957Z,100067.26
2019-06-26T10:39:23.000Z,100072.11
2019-06-26T10:41:55.374Z,100071.70
2019-06-26T10:44:27.525Z,100072.76
2019-06-26T10:46:59.630Z,100077.73
2019-06-26T10:49:31.683Z,100075.10
2019-06-26T10:52:04.455Z,100068.09
2019-06-26T10:54:39.241Z,100078.25
2019-06-26T10:57:12.177Z,100073.66
2019-06-26T10:59:44.578Z,100075.76
2019-06-26T11:02:18.355Z,100073.05
2019-06-26T11:04:50.534Z,100073.95
2019-06-26T11:07:22.561Z,100071.89
2019-06-26T11:09:54.607Z,100061.61
2019-06-26T11:12:27.390Z,100062.95
2019-06-26T11:15:00.149Z,100058.72
2019-06-26T11:17:33.323Z,100059.05
2019-06-26T11:20:07.206Z,100055.81
2019-06-26T11:22:39.305Z,100060.28
2019-06-26T11:25:12.860Z,100060.07
2019-06-26T11:27:44.967Z,100064.23
2019-06-26T11:30:19.717Z,100064.23
2019-06-26T11:32:51.783Z,100069.95
2019-06-26T11:35:23.928Z,100070.55
2019-06-26T11:37:56.192Z,100073.24
2019-06-26T11:40:28.592Z,100073.73
2019-06-26T11:43:00.792Z,100075.70
2019-06-26T11:45:33.765Z,100065.64
2019-06-26T11:48:06.528Z,100057.95
2019-06-26T11:50:39.338Z,100054.44
2019-06-26T11:53:11.618Z,100069.94
2019-06-26T11:55:44.169Z,100076.35
2019-06-26T11:58:16.294Z,100067.95
2019-06-26T12:00:48.472Z,100078.52
2019-06-26T12:03:20.644Z,100070.12
2019-06-26T12:05:53.141Z,100066.58
2019-06-26T12:08:26.959Z,100072.58
2019-06-26T12:10:59.334Z,100072.17
2019-06-26T12:13:33.466Z,100068.81
2019-06-26T12:16:06.639Z,100068.89
2019-06-26T12:18:40.423Z,100055.20
2019-06-26T12:21:12.644Z,100054.56
2019-06-26T12:23:44.875Z,100057.51
2019-06-26T12:26:16.998Z,100058.95
2019-06-26T12:28:49.174Z,100059.36
2019-06-26T12:31:21.351Z,100063.17
2019-06-26T12:33:53.441Z,100063.55
2019-06-26T12:36:26.718Z,100063.18
2019-06-26T12:38:58.906Z,100060.40
2019-06-26T12:41:31.065Z,100047.80
2019-06-26T12:44:04.487Z,100046.67
2019-06-26T12:46:36.580Z,100041.47
2019-06-26T12:49:08.667Z,100037.16
2019-06-26T12:51:41.009Z,100044.61
2019-06-26T12:54:13.102Z,100041.27
2019-06-26T12:56:45.622Z,100047.39
2019-06-26T12:59:17.677Z,100038.51
2019-06-26T13:01:50.025Z,100043.27
2019-06-26T13:04:22.168Z,100042.11
2019-06-26T13:06:54.481Z,100046.48
2019-06-26T13:09:28.272Z,100036.05
2019-06-26T13:12:00.562Z,100040.98
2019-06-26T13:14:33.151Z,100039.05
2019-06-26T13:17:06.778Z,100038.28
2019-06-26T13:19:39.411Z,100036.16
2019-06-26T13:22:11.701Z,100034.46
2019-06-26T13:24:44.277Z,100035.52
2019-06-26T13:27:17.715Z,100029.55
2019-06-26T13:29:49.881Z,100035.97
2019-06-26T13:32:22.046Z,100027.01
2019-06-26T13:34:54.190Z,100028.64
2019-06-26T13:37:27.435Z,100028.80
2019-06-26T13:39:59.606Z,100021.64
2019-06-26T13:42:32.321Z,100030.30
2019-06-26T13:45:04.626Z,100026.23
2019-06-26T13:47:36.789Z,100029.45
2019-06-26T13:50:08.898Z,99952.21
2019-06-26T13:52:40.824Z,100022.55
2019-06-26T13:55:12.920Z,100019.54
2019-06-26T13:57:44.854Z,100024.36
2019-06-26T14:00:17.646Z,100024.63
2019-06-26T14:02:49.616Z,100024.78
2019-06-26T14:05:22.579Z,100019.60
2019-06-26T14:07:54.544Z,100024.83
2019-06-26T14:10:27.007Z,100018.77
2019-06-26T14:12:58.945Z,100022.08
2019-06-26T14:15:30.937Z,100019.46
2019-06-26T14:18:02.942Z,100018.02
2019-06-26T14:20:34.906Z,100020.63
2019-06-26T14:23:06.896Z,100021.46
2019-06-26T14:25:39.028Z,100019.16
2019-06-26T14:28:11.020Z,100026.95
2019-06-26T14:30:44.712Z,100026.61
2019-06-26T14:33:16.634Z,100018.80
2019-06-26T14:35:48.592Z,100022.53
2019-06-26T14:38:20.624Z,100021.09
2019-06-26T14:40:53.151Z,100022.51
2019-06-26T14:43:26.965Z,100025.50
2019-06-26T14:45:58.968Z,100026.70
2019-06-26T14:48:31.046Z,100021.62
2019-06-26T14:51:04.551Z,100012.19
2019-06-26T14:53:36.868Z,100008.75
2019-06-26T14:56:09.020Z,100009.36
2019-06-26T14:58:41.069Z,100006.98
2019-06-26T15:01:13.080Z,100006.05
2019-06-26T15:03:45.063Z,100013.50
2019-06-26T15:06:17.372Z,100006.73
2019-06-26T15:08:49.500Z,100009.84
2019-06-26T15:11:21.519Z,100011.31
2019-06-26T15:13:53.822Z,100005.28
2019-06-26T15:16:25.951Z,100005.42
2019-06-26T15:18:58.154Z,100003.44
2019-06-26T15:21:30.420Z,100008.92
2019-06-26T15:24:03.292Z,100000.63
2019-06-26T15:26:35.456Z,99990.11
2019-06-26T15:29:08.167Z,99987.48
2019-06-26T15:31:41.664Z,99991.44
2019-06-26T15:34:13.843Z,99978.70
2019-06-26T15:36:48.976Z,99984.03
2019-06-26T15:39:21.362Z,99984.82
2019-06-26T15:41:55.235Z,99981.75
2019-06-26T15:44:27.433Z,99989.38
2019-06-26T15:46:59.808Z,99989.61
2019-06-26T15:49:32.056Z,99996.72
2019-06-26T15:52:14.516Z,99993.87
2019-06-26T15:54:38.552Z,99993.87
2019-06-26T15:57:14.927Z,99995.43
2019-06-26T15:59:47.031Z,99996.36
2019-06-26T16:02:19.099Z,99986.11
2019-06-26T16:04:51.537Z,99991.05
2019-06-26T16:07:23.687Z,99994.20
2019-06-26T16:09:55.701Z,99990.09
2019-06-26T16:12:27.818Z,99992.13
2019-06-26T16:14:59.859Z,99994.36
2019-06-26T16:17:41.967Z,99988.78
2019-06-26T16:20:14.180Z,99983.55
2019-06-26T16:22:46.390Z,99979.58
2019-06-26T16:25:18.591Z,99978.17
2019-06-26T16:28:04.287Z,99988.75
2019-06-26T16:30:26.470Z,99986.48
2019-06-26T16:32:58.428Z,99980.95
2019-06-26T16:35:30.798Z,99978.95
2019-06-26T16:38:04.537Z,99980.09
2019-06-26T16:40:37.641Z,99939.81
2019-06-26T16:43:09.708Z,99975.82
2019-06-26T16:45:41.685Z,99972.38
2019-06-26T16:48:16.193Z,99972.55
2019-06-26T16:50:48.282Z,99963.78
2019-06-26T16:53:22.299Z,99958.80
2019-06-26T16:55:54.358Z,99956.22
2019-06-26T16:58:28.005Z,99963.36
2019-06-26T17:01:00.198Z,99961.64
2019-06-26T17:03:34.512Z,99964.95
2019-06-26T17:06:07.615Z,99960.03
2019-06-26T17:08:41.406Z,99960.91
2019-06-26T17:11:15.581Z,99958.56
2019-06-26T17:13:49.770Z,99955.31
2019-06-26T17:16:25.537Z,99948.23
2019-06-26T17:18:58.640Z,99946.63
2019-06-26T17:21:30.989Z,99944.51
2019-06-26T17:24:05.124Z,99943.67
2019-06-26T17:26:37.780Z,99938.89
2019-06-26T17:29:11.870Z,99933.02
2019-06-26T17:31:44.125Z,99932.91
2019-06-26T17:34:16.936Z,99934.66
2019-06-26T17:36:49.999Z,99938.50
2019-06-26T17:39:24.265Z,99936.77
2019-06-26T17:41:56.744Z,99939.31
2019-06-26T17:44:29.195Z,99944.67
2019-06-26T17:47:05.287Z,99946.62
2019-06-26T17:49:36.222Z,99945.49
2019-06-26T17:52:08.821Z,99950.98
2019-06-26T17:54:41.128Z,99954.05
2019-06-26T17:57:15.227Z,99953.98
2019-06-26T17:59:50.427Z,99953.49
2019-06-26T18:02:22.736Z,99948.72
2019-06-26T18:04:57.080Z,99952.52
2019-06-26T18:07:29.469Z,99955.27
2019-06-26T18:10:02.822Z,99953.86
2019-06-26T18:12:39.025Z,99950.52
2019-06-26T18:15:13.069Z,99949.18
2019-06-26T18:17:47.276Z,99942.59
2019-06-26T18:20:26.434Z,99937.61
2019-06-26T18:23:07.409Z,99935.45
2019-06-26T18:25:36.585Z,99933.42
2019-06-26T18:28:08.810Z,99932.77
2019-06-26T18:30:40.840Z,99929.18
2019-06-26T18:33:13.286Z,99924.81
2019-06-26T18:35:50.220Z,99889.94
2019-06-26T18:38:48.918Z,99923.45
2019-06-26T18:41:23.163Z,99926.92
2019-06-26T18:43:55.093Z,99934.10
2019-06-26T18:46:27.198Z,99936.02
2019-06-26T18:48:59.146Z,99937.78
2019-06-26T18:51:31.103Z,99949.92
2019-06-26T18:54:03.388Z,99948.23
2019-06-26T18:56:35.370Z,99957.52
2019-06-26T18:59:07.464Z,99945.55
2019-06-26T19:01:43.058Z,99946.68
2019-06-26T19:04:15.025Z,99942.84
2019-06-26T19:06:50.245Z,99953.34
2019-06-26T19:09:24.213Z,99946.19
2019-06-26T19:11:57.537Z,99939.13
2019-06-26T19:14:29.494Z,99944.48
2019-06-26T19:17:01.857Z,99946.10
2019-06-26T19:19:33.956Z,99956.55
2019-06-26T19:22:07.627Z,99954.58
2019-06-26T19:24:40.133Z,99955.28
2019-06-26T19:27:12.160Z,99952.50
2019-06-26T19:29:44.666Z,99956.56
2019-06-26T19:32:16.682Z,99955.94
2019-06-26T19:34:50.065Z,99959.80
2019-06-26T19:37:22.219Z,99965.34
2019-06-26T19:39:54.306Z,99962.28
2019-06-26T19:42:26.357Z,99961.22
2019-06-26T19:45:00.508Z,99967.33
2019-06-26T19:47:33.680Z,99974.04
2019-06-26T19:50:07.838Z,99982.63
2019-06-26T19:52:40.026Z,99980.47
2019-06-26T19:55:12.337Z,99979.06
2019-06-26T19:57:44.505Z,99980.91
2019-06-26T20:00:16.985Z,99992.13
2019-06-26T20:02:49.016Z,99989.69
2019-06-26T20:05:22.283Z,99990.36
2019-06-26T20:07:54.338Z,99996.36
2019-06-26T20:10:26.494Z,99993.44
2019-06-26T20:12:58.557Z,99993.06
2019-06-26T20:15:30.564Z,99997.70
2019-06-26T20:18:04.382Z,99991.89
2019-06-26T20:20:37.081Z,99999.88
2019-06-26T20:23:11.445Z,99999.91
2019-06-26T20:25:43.507Z,99997.95
2019-06-26T20:28:15.669Z,100009.13
2019-06-26T20:30:49.053Z,99999.44
2019-06-26T20:33:21.342Z,100002.13
2019-06-26T20:35:53.427Z,100011.53
2019-06-26T20:38:25.453Z,100015.55
2019-06-26T20:40:57.572Z,100018.70
2019-06-26T20:43:29.924Z,100014.77
2019-06-26T20:46:04.806Z,100018.12
2019-06-26T20:48:37.394Z,100016.19
2019-06-26T20:51:11.183Z,100018.24
2019-06-26T20:53:43.440Z,100026.83
2019-06-26T20:56:15.691Z,100028.91
2019-06-26T20:58:47.926Z,100036.84
2019-06-26T21:01:20.168Z,100023.23
2019-06-26T21:03:53.966Z,100036.25
2019-06-26T21:06:26.159Z,100040.63
2019-06-26T21:08:58.444Z,100044.83
2019-06-26T21:11:30.797Z,100043.31
2019-06-26T21:14:03.040Z,100048.82
2019-06-26T21:16:38.455Z,100053.45
2019-06-26T21:19:10.596Z,100056.42
2019-06-26T21:21:43.292Z,100063.73
2019-06-26T21:24:15.631Z,100063.56
2019-06-26T21:26:47.856Z,100030.20
2019-06-26T21:29:20.003Z,100058.54
2019-06-26T21:31:53.698Z,100058.24
2019-06-26T21:34:26.004Z,100055.18
2019-06-26T21:36:58.208Z,100064.20
2019-06-26T21:39:30.666Z,100069.73
2019-06-26T21:42:04.635Z,100064.92
2019-06-26T21:44:36.902Z,100066.58
2019-06-26T21:47:09.167Z,100057.27
2019-06-26T21:49:41.461Z,100057.63
2019-06-26T21:52:13.745Z,100056.98
2019-06-26T21:54:46.315Z,100053.70
2019-06-26T21:57:37.623Z,100051.20
2019-06-26T22:00:28.866Z,100045.74
2019-06-26T22:03:19.651Z,100059.77
2019-06-26T22:05:55.132Z,100060.59
2019-06-26T22:08:46.915Z,100059.91
2019-06-26T22:11:20.635Z,100054.77
2019-06-26T22:13:52.788Z,100054.12
2019-06-26T22:16:25.576Z,100052.11
2019-06-26T22:18:57.621Z,100050.14
2019-06-26T22:21:32.414Z,100048.13
2019-06-26T22:24:05.113Z,100049.48
2019-06-26T22:26:37.307Z,100051.86
2019-06-26T22:29:09.570Z,100044.36
2019-06-26T22:31:41.738Z,100042.36
2019-06-26T22:34:15.522Z,100041.86
2019-06-26T22:36:51.836Z,100051.80
2019-06-26T22:39:21.628Z,100044.20
2019-06-26T22:41:53.689Z,100051.02
2019-06-26T22:44:25.849Z,100050.20
2019-06-26T22:46:57.927Z,100043.23
2019-06-26T22:49:31.796Z,100039.73
2019-06-26T22:52:06.459Z,100040.59
2019-06-26T22:54:38.515Z,100057.66
2019-06-26T22:57:14.199Z,100048.03
2019-06-26T22:59:52.077Z,100042.23
2019-06-26T23:02:27.967Z,100042.91
2019-06-26T23:05:00.509Z,100037.41
2019-06-26T23:07:33.485Z,100042.03
2019-06-26T23:10:10.977Z,100049.17
2019-06-26T23:12:44.004Z,100052.58
2019-06-26T23:15:22.179Z,100050.08
2019-06-26T23:18:02.838Z,100049.79
2019-06-26T23:20:36.964Z,100054.42
2019-06-26T23:23:14.641Z,100042.34
2019-06-26T23:25:47.760Z,100043.31
2019-06-26T23:28:20.362Z,100045.50
2019-06-26T23:30:52.700Z,100040.00
2019-06-26T23:33:25.870Z,100053.41
2019-06-26T23:35:58.141Z,100050.77
2019-06-26T23:38:30.525Z,100046.47
2019-06-26T23:41:03.011Z,100052.08
2019-06-26T23:43:38.457Z,100051.75
2019-06-26T23:46:13.240Z,100041.62
2019-06-26T23:48:45.886Z,100041.13
2019-06-26T23:51:18.314Z,100042.39
2019-06-26T23:53:50.439Z,100039.26
2019-06-26T23:56:39.537Z,100037.05
2019-06-26T23:58:58.942Z,100041.39
